Time;durP1;ratioP1;P1;durP2;ratioP2;P2;SDS_P1;SDS_P2;PMS_P1;PMS_P2;Temp;Humidity;BMP_temperature;BMP_pressure;BME280_temperature;BME280_humidity;BME280_pressure;Samples;Min_cycle;Max_cycle;Signal;HPM_P1;HPM_P2
2023/02/28 00:00:13;;;;;;;13.85;6.93;;;1.30;47.60;;;;;;5031123;28;20383;-73
2023/02/28 00:02:41;;;;;;;10.13;6.57;;;1.40;46.90;;;;;;5030709;28;20387;-73
2023/02/28 00:05:08;;;;;;;15.27;6.82;;;1.40;46.60;;;;;;5030875;28;20433;-75
2023/02/28 00:07:34;;;;;;;13.23;7.35;;;1.40;46.90;;;;;;5030826;28;20426;-75
2023/02/28 00:10:00;;;;;;;11.27;7.70;;;1.30;46.90;;;;;;5030933;28;20391;-74
2023/02/28 00:12:26;;;;;;;16.63;8.40;;;1.40;47.10;;;;;;5013013;28;20398;-74
2023/02/28 00:14:52;;;;;;;15.48;8.68;;;1.30;47.10;;;;;;5032125;28;20406;-73
2023/02/28 00:17:20;;;;;;;14.30;8.13;;;1.30;47.40;;;;;;5032773;28;20459;-73
2023/02/28 00:19:47;;;;;;;15.27;8.30;;;1.20;48.10;;;;;;5032434;28;20979;-74
2023/02/28 00:22:13;;;;;;;15.88;7.63;;;1.20;48.00;;;;;;5032361;28;20444;-74
2023/02/28 00:24:38;;;;;;;15.05;7.50;;;1.20;48.30;;;;;;5033522;28;20880;-73
2023/02/28 00:27:04;;;;;;;12.77;7.73;;;1.20;50.10;;;;;;5035409;28;20390;-74
2023/02/28 00:29:29;;;;;;;17.03;7.83;;;1.30;51.50;;;;;;5035345;28;20478;-72
2023/02/28 00:31:55;;;;;;;14.40;7.50;;;1.40;50.20;;;;;;5033133;28;20506;-74
2023/02/28 00:34:20;;;;;;;14.02;8.23;;;1.40;48.40;;;;;;5032672;28;20407;-74
2023/02/28 00:36:48;;;;;;;16.80;8.18;;;1.20;50.80;;;;;;5036901;28;20407;-74
2023/02/28 00:39:14;;;;;;;12.70;7.30;;;0.90;53.90;;;;;;5036530;28;20382;-73
2023/02/28 00:41:40;;;;;;;15.93;7.38;;;0.80;56.50;;;;;;5035489;28;20466;-74
2023/02/28 00:44:05;;;;;;;11.50;7.20;;;0.90;57.60;;;;;;5034978;28;20776;-74
2023/02/28 00:46:31;;;;;;;12.00;6.70;;;0.90;57.30;;;;;;5035262;28;20387;-73
2023/02/28 00:48:56;;;;;;;13.13;6.93;;;0.90;58.00;;;;;;5034729;28;20490;-72
2023/02/28 00:51:22;;;;;;;8.00;5.90;;;0.80;58.60;;;;;;5034501;28;20469;-73
2023/02/28 00:53:47;;;;;;;12.25;7.05;;;1.10;61.90;;;;;;5035823;28;20450;-74
2023/02/28 00:56:13;;;;;;;10.02;5.97;;;1.20;56.80;;;;;;5035006;28;20390;-73
2023/02/28 00:58:39;;;;;;;14.90;6.50;;;1.30;54.70;;;;;;5016705;28;20387;-73
2023/02/28 01:01:05;;;;;;;11.20;6.70;;;1.20;55.20;;;;;;5033991;28;20375;-73
2023/02/28 01:03:30;;;;;;;10.67;6.53;;;1.20;54.80;;;;;;5034497;28;21013;-73
2023/02/28 01:05:56;;;;;;;10.63;6.50;;;1.20;56.30;;;;;;5016695;28;20391;-75
2023/02/28 01:08:22;;;;;;;9.63;6.10;;;1.30;55.60;;;;;;5034234;28;20717;-73
2023/02/28 01:10:47;;;;;;;10.60;6.00;;;1.30;56.90;;;;;;5033979;28;20390;-72
2023/02/28 01:13:14;;;;;;;12.40;6.50;;;1.40;53.20;;;;;;5033729;28;20379;-73
2023/02/28 01:15:44;;;;;;;12.32;6.70;;;1.50;49.40;;;;;;5033761;28;20911;-73
2023/02/28 01:18:09;;;;;;;12.60;6.20;;;1.60;48.00;;;;;;5033992;28;20720;-73
2023/02/28 01:20:37;;;;;;;13.85;7.47;;;1.50;47.80;;;;;;5033803;28;20383;-73
2023/02/28 01:23:02;;;;;;;11.82;7.00;;;1.50;48.20;;;;;;5033580;28;20386;-74
2023/02/28 01:25:28;;;;;;;14.90;6.97;;;1.40;48.70;;;;;;5033686;28;20528;-71
2023/02/28 01:27:54;;;;;;;14.23;7.10;;;1.30;49.20;;;;;;5033851;28;20609;-73
2023/02/28 01:30:19;;;;;;;13.80;7.30;;;1.10;51.00;;;;;;5034261;28;20413;-73
2023/02/28 01:32:45;;;;;;;12.50;7.00;;;0.90;53.60;;;;;;5034200;28;20387;-73
2023/02/28 01:35:10;;;;;;;14.23;7.13;;;1.00;53.40;;;;;;5034241;28;20406;-74
2023/02/28 01:37:36;;;;;;;15.52;7.78;;;0.90;53.00;;;;;;5034204;28;20387;-72
2023/02/28 01:40:02;;;;;;;10.23;6.87;;;0.80;53.70;;;;;;5033688;28;20387;-72
2023/02/28 01:42:28;;;;;;;17.45;8.00;;;0.50;55.90;;;;;;5032879;28;20379;-72
2023/02/28 01:45:18;;;;;;;13.60;7.40;;;0.50;57.50;;;;;;5033589;28;20752;-72
2023/02/28 01:47:44;;;;;;;11.77;7.35;;;0.80;55.70;;;;;;5032797;28;20391;-73
2023/02/28 01:50:19;;;;;;;13.15;7.60;;;0.90;53.90;;;;;;5033942;28;20796;-73
2023/02/28 01:52:46;;;;;;;11.98;7.70;;;0.90;53.30;;;;;;5033997;28;20375;-73
2023/02/28 01:55:12;;;;;;;15.10;7.00;;;0.90;53.80;;;;;;5015135;28;20518;-73
2023/02/28 01:57:43;;;;;;;14.53;7.27;;;0.80;54.40;;;;;;5033415;28;20501;-72
2023/02/28 02:00:13;;;;;;;12.85;7.57;;;0.70;55.10;;;;;;5033115;28;20384;-72
2023/02/28 02:02:40;;;;;;;11.18;7.43;;;0.70;55.90;;;;;;5032683;28;20394;-72
2023/02/28 02:05:18;;;;;;;12.70;7.57;;;0.60;56.10;;;;;;5032917;28;20470;-72
2023/02/28 02:07:46;;;;;;;13.02;7.65;;;0.60;56.60;;;;;;5033023;28;20429;-73
2023/02/28 02:10:18;;;;;;;13.20;7.50;;;0.60;57.10;;;;;;5032894;28;20394;-72
2023/02/28 02:12:43;;;;;;;15.70;8.25;;;0.50;57.60;;;;;;5032778;28;20532;-73
2023/02/28 02:15:18;;;;;;;12.43;7.33;;;0.50;57.80;;;;;;5035095;28;20482;-73
2023/02/28 02:17:49;;;;;;;17.38;7.88;;;0.50;57.90;;;;;;5036583;28;20399;-73
2023/02/28 02:20:31;;;;;;;16.30;8.35;;;0.50;57.80;;;;;;5035876;28;20904;-72
2023/02/28 02:23:17;;;;;;;11.07;6.95;;;0.50;58.10;;;;;;5032565;28;20395;-72
2023/02/28 02:25:45;;;;;;;12.98;6.85;;;0.50;58.40;;;;;;5032657;28;20449;-72
2023/02/28 02:28:20;;;;;;;12.60;7.43;;;0.50;58.60;;;;;;5032708;28;20498;-73
2023/02/28 02:31:13;;;;;;;11.55;7.22;;;0.50;58.60;;;;;;5032791;28;20383;-72
2023/02/28 02:34:03;;;;;;;15.93;8.00;;;0.40;58.50;;;;;;5032258;28;20498;-72
2023/02/28 02:36:51;;;;;;;13.60;7.45;;;0.40;58.30;;;;;;5032215;28;20378;-72
2023/02/28 02:39:33;;;;;;;12.00;7.40;;;0.40;58.90;;;;;;5032218;28;20448;-73
2023/02/28 02:42:01;;;;;;;12.55;7.13;;;0.40;59.10;;;;;;5032109;28;20383;-73
2023/02/28 02:44:44;;;;;;;12.80;7.40;;;0.30;59.40;;;;;;5032123;28;20529;-74
2023/02/28 02:47:22;;;;;;;14.13;7.50;;;0.30;59.90;;;;;;5031990;28;20383;-71
2023/02/28 02:49:54;;;;;;;17.38;8.48;;;0.30;60.20;;;;;;5032282;28;20892;-72
2023/02/28 02:52:24;;;;;;;15.32;8.10;;;0.30;59.70;;;;;;5032024;28;20394;-73
2023/02/28 02:54:53;;;;;;;14.95;7.80;;;0.30;59.80;;;;;;5032096;28;20443;-72
2023/02/28 02:57:31;;;;;;;15.75;7.80;;;0.30;59.50;;;;;;5014431;28;20402;-73
2023/02/28 02:59:58;;;;;;;13.45;7.63;;;0.90;60.10;;;;;;5032845;28;20430;-73
2023/02/28 03:02:25;;;;;;;12.52;7.43;;;0.30;60.00;;;;;;5032738;28;20386;-73
2023/02/28 03:05:00;;;;;;;15.80;8.25;;;0.20;60.10;;;;;;5032944;28;20678;-73
2023/02/28 03:07:26;;;;;;;14.95;8.30;;;0.20;60.70;;;;;;5034758;28;20415;-73
2023/02/28 03:09:53;;;;;;;14.07;7.65;;;0.20;60.60;;;;;;5035185;28;20410;-72
2023/02/28 03:12:20;;;;;;;18.00;7.90;;;0.20;60.80;;;;;;5034260;28;20799;-72
2023/02/28 03:14:54;;;;;;;12.20;7.50;;;0.20;61.30;;;;;;5033696;28;20403;-72
2023/02/28 03:17:44;;;;;;;13.63;7.80;;;0.10;62.00;;;;;;5015920;28;20750;-74
2023/02/28 03:20:38;;;;;;;13.00;8.00;;;0.10;62.20;;;;;;5031947;28;20748;-72
2023/02/28 03:23:45;;;;;;;13.30;7.80;;;0.10;62.70;;;;;;5031505;28;20845;-74
2023/02/28 03:26:21;;;;;;;11.73;7.70;;;0.10;62.60;;;;;;4992568;28;20410;-74
2023/02/28 03:28:52;;;;;;;14.18;7.80;;;0.10;62.60;;;;;;4990505;28;20383;-73
2023/02/28 03:31:26;;;;;;;15.88;8.50;;;0.10;61.70;;;;;;5014603;28;20422;-74
2023/02/28 03:34:06;;;;;;;17.13;8.50;;;0.10;61.90;;;;;;5031639;28;20403;-73
2023/02/28 03:36:43;;;;;;;12.40;7.25;;;0.10;61.80;;;;;;5031323;28;20714;-74
2023/02/28 03:39:19;;;;;;;11.70;6.65;;;0.10;61.60;;;;;;5031423;28;20417;-73
2023/02/28 03:41:49;;;;;;;14.68;7.90;;;0.00;62.00;;;;;;5031331;28;20740;-74
2023/02/28 03:44:20;;;;;;;13.93;8.30;;;0.00;62.20;;;;;;5031563;28;20792;-72
2023/02/28 03:47:02;;;;;;;10.30;7.15;;;0.00;62.30;;;;;;5014465;28;20390;-72
2023/02/28 03:49:45;;;;;;;12.45;7.60;;;0.00;62.30;;;;;;5031187;28;20387;-73
2023/02/28 03:52:11;;;;;;;13.88;7.13;;;0.00;62.60;;;;;;5031455;28;20387;-73
2023/02/28 03:54:44;;;;;;;12.70;7.70;;;0.00;63.00;;;;;;5041544;28;20923;-74
2023/02/28 03:57:23;;;;;;;11.75;7.80;;;-0.10;62.90;;;;;;5025854;28;20442;-74
2023/02/28 03:59:57;;;;;;;12.65;6.60;;;-0.10;63.00;;;;;;5046797;28;20384;-74
2023/02/28 04:02:23;;;;;;;14.38;7.72;;;-0.10;62.80;;;;;;5037727;28;20387;-73
2023/02/28 04:04:49;;;;;;;11.20;6.90;;;-0.10;62.80;;;;;;5013211;28;20395;-73
2023/02/28 04:07:15;;;;;;;11.77;7.30;;;-0.10;63.20;;;;;;5031775;28;20791;-73
2023/02/28 04:09:41;;;;;;;10.15;7.00;;;-0.10;63.30;;;;;;5044534;28;20387;-74
2023/02/28 04:12:07;;;;;;;10.75;6.60;;;-0.20;63.90;;;;;;5043074;28;20387;-74
2023/02/28 04:14:33;;;;;;;10.40;7.00;;;-0.20;63.80;;;;;;5042304;28;20880;-73
2023/02/28 04:16:58;;;;;;;12.40;7.43;;;-0.20;63.90;;;;;;5030472;28;20391;-72
2023/02/28 04:19:24;;;;;;;10.93;6.87;;;-0.20;64.10;;;;;;5030368;28;20481;-73
2023/02/28 04:21:52;;;;;;;12.63;6.87;;;-0.20;63.80;;;;;;5030524;28;20733;-74
2023/02/28 04:24:20;;;;;;;12.20;6.57;;;-0.20;64.30;;;;;;5012776;28;20488;-73
2023/02/28 04:26:48;;;;;;;14.05;7.07;;;-0.20;63.80;;;;;;5030626;28;20401;-72
2023/02/28 04:29:19;;;;;;;10.70;6.80;;;-0.20;63.10;;;;;;5030295;28;20936;-72
2023/02/28 04:31:44;;;;;;;12.05;7.10;;;-0.30;64.20;;;;;;5030361;28;20845;-73
2023/02/28 04:34:10;;;;;;;12.80;6.50;;;-0.20;63.60;;;;;;5030094;28;20414;-74
2023/02/28 04:36:35;;;;;;;12.05;6.80;;;-0.20;62.80;;;;;;5030360;28;20391;-71
2023/02/28 04:39:01;;;;;;;13.77;6.70;;;-0.30;63.30;;;;;;5030600;28;20385;-71
2023/02/28 04:41:27;;;;;;;11.20;6.47;;;-0.30;63.40;;;;;;5031459;28;20418;-72
2023/02/28 04:43:52;;;;;;;13.05;6.68;;;-0.30;63.40;;;;;;5030877;28;20481;-72
2023/02/28 04:46:18;;;;;;;12.23;7.20;;;-0.30;62.70;;;;;;5030132;28;20387;-74
2023/02/28 04:48:44;;;;;;;10.25;6.88;;;-0.30;63.00;;;;;;5030214;28;20387;-71
2023/02/28 04:51:13;;;;;;;11.80;6.70;;;-0.30;63.70;;;;;;5012572;28;20391;-73
2023/02/28 04:53:41;;;;;;;14.43;6.88;;;-0.30;64.40;;;;;;5030246;28;20391;-73
2023/02/28 04:56:07;;;;;;;16.23;6.70;;;-0.30;63.90;;;;;;5030234;28;20391;-72
2023/02/28 04:58:33;;;;;;;11.63;6.80;;;-0.40;64.30;;;;;;5012340;28;20379;-73
2023/02/28 05:01:12;;;;;;;12.43;6.80;;;-0.50;66.10;;;;;;5030093;28;20473;-73
2023/02/28 05:03:41;;;;;;;8.47;5.97;;;-0.40;65.40;;;;;;5030017;28;20398;-73
2023/02/28 05:06:08;;;;;;;9.40;5.78;;;-0.50;64.90;;;;;;5030053;28;20395;-73
2023/02/28 05:08:33;;;;;;;9.85;5.80;;;-0.50;66.30;;;;;;5030175;28;20484;-72
2023/02/28 05:11:00;;;;;;;8.75;5.68;;;-0.50;63.40;;;;;;5030077;28;20410;-72
2023/02/28 05:13:26;;;;;;;10.73;6.20;;;-0.40;61.10;;;;;;5029977;28;20383;-71
2023/02/28 05:15:52;;;;;;;7.07;5.20;;;-0.20;58.10;;;;;;5030431;28;20822;-72
2023/02/28 05:18:17;;;;;;;13.95;5.72;;;-0.20;55.80;;;;;;5030048;28;20379;-73
2023/02/28 05:20:43;;;;;;;9.87;6.23;;;-0.20;56.00;;;;;;5032709;28;20387;-73
2023/02/28 05:23:12;;;;;;;10.20;6.13;;;-0.20;55.90;;;;;;5036144;28;20391;-74
2023/02/28 05:25:38;;;;;;;10.32;6.32;;;-0.20;55.60;;;;;;5035630;28;20407;-74
2023/02/28 05:28:04;;;;;;;8.40;5.65;;;-0.30;56.20;;;;;;5037672;28;20387;-73
2023/02/28 05:30:31;;;;;;;8.50;6.40;;;-0.40;57.50;;;;;;5036145;28;20383;-73
2023/02/28 05:32:57;;;;;;;10.15;6.90;;;-0.50;60.20;;;;;;5035137;28;20390;-74
2023/02/28 05:35:23;;;;;;;9.30;6.43;;;-0.50;61.70;;;;;;5035352;28;20414;-74
2023/02/28 05:37:48;;;;;;;12.23;7.60;;;-0.60;61.50;;;;;;5035309;28;20397;-74
2023/02/28 05:40:15;;;;;;;13.37;6.87;;;-0.80;65.20;;;;;;5034932;28;20753;-73
2023/02/28 05:42:40;;;;;;;11.38;6.20;;;-0.60;63.10;;;;;;5034127;28;20445;-74
2023/02/28 05:45:07;;;;;;;9.40;6.50;;;-0.50;60.80;;;;;;5035936;28;20952;-74
2023/02/28 05:47:33;;;;;;;9.98;6.65;;;-0.50;59.50;;;;;;5035338;28;20755;-72
2023/02/28 05:49:59;;;;;;;10.82;6.50;;;-0.50;60.10;;;;;;5034584;28;20387;-72
2023/02/28 05:52:25;;;;;;;12.77;6.70;;;-0.60;59.10;;;;;;5034624;28;20850;-74
2023/02/28 05:54:51;;;;;;;9.43;6.00;;;-0.50;60.50;;;;;;5035338;28;20415;-74
2023/02/28 05:57:16;;;;;;;9.60;5.97;;;-0.40;58.80;;;;;;5036794;28;20509;-73
2023/02/28 05:59:42;;;;;;;10.17;6.50;;;-0.60;59.10;;;;;;5036196;28;20436;-74
2023/02/28 06:02:16;;;;;;;10.73;6.50;;;-0.60;60.00;;;;;;5035862;28;20395;-74
2023/02/28 06:04:43;;;;;;;11.52;6.35;;;-0.60;60.70;;;;;;5036667;28;20391;-75
2023/02/28 06:07:09;;;;;;;8.77;6.13;;;-0.60;61.30;;;;;;5036517;28;20470;-73
2023/02/28 06:09:35;;;;;;;10.48;6.35;;;-0.60;60.70;;;;;;5036103;28;20869;-74
2023/02/28 06:12:05;;;;;;;11.68;6.00;;;-0.60;59.00;;;;;;5036551;28;20395;-74
2023/02/28 06:14:31;;;;;;;9.18;5.70;;;-0.50;59.10;;;;;;5034672;28;20482;-74
2023/02/28 06:16:58;;;;;;;11.07;6.20;;;-0.60;58.20;;;;;;5033664;28;20389;-73
2023/02/28 06:19:25;;;;;;;12.07;6.25;;;-0.60;57.90;;;;;;5033227;28;20413;-74
2023/02/28 06:21:54;;;;;;;8.13;5.90;;;-0.50;57.90;;;;;;5033022;28;20464;-73
2023/02/28 06:24:21;;;;;;;10.82;6.10;;;-0.60;58.50;;;;;;5034580;28;20406;-72
2023/02/28 06:26:46;;;;;;;12.90;5.95;;;-0.60;57.70;;;;;;5035860;28;20725;-73
2023/02/28 06:29:12;;;;;;;8.33;5.57;;;-0.60;56.40;;;;;;5033680;28;20383;-73
2023/02/28 06:31:38;;;;;;;9.10;5.80;;;-0.50;56.10;;;;;;5031336;28;20723;-72
2023/02/28 06:34:04;;;;;;;15.20;5.60;;;-0.50;54.30;;;;;;5032589;28;20399;-74
2023/02/28 06:36:30;;;;;;;11.95;5.75;;;-0.40;52.60;;;;;;5032691;28;20432;-74
2023/02/28 06:38:57;;;;;;;9.90;5.70;;;-0.30;52.10;;;;;;5032887;28;20474;-74
2023/02/28 06:41:25;;;;;;;7.43;5.20;;;-0.30;50.10;;;;;;5032666;28;20383;-74
2023/02/28 06:43:51;;;;;;;8.30;5.80;;;-0.30;50.30;;;;;;5032663;28;20402;-75
2023/02/28 06:46:17;;;;;;;7.82;5.75;;;-0.30;49.50;;;;;;5033040;28;20387;-74
2023/02/28 06:48:44;;;;;;;9.40;5.88;;;-0.30;49.70;;;;;;5036385;28;20812;-74
2023/02/28 06:51:20;;;;;;;10.13;5.50;;;-0.30;49.30;;;;;;5035811;28;20954;-74
2023/02/28 06:53:46;;;;;;;7.05;5.50;;;-0.20;49.10;;;;;;5036220;28;20399;-73
2023/02/28 06:56:14;;;;;;;8.20;5.20;;;-0.20;49.00;;;;;;5036409;28;20857;-74
2023/02/28 06:58:40;;;;;;;10.18;6.00;;;-0.20;49.10;;;;;;5033321;28;20389;-73
2023/02/28 07:01:07;;;;;;;7.63;5.60;;;-0.10;49.10;;;;;;5033069;28;20479;-73
2023/02/28 07:03:34;;;;;;;12.18;5.30;;;-0.10;47.70;;;;;;5033129;28;20462;-74
2023/02/28 07:06:00;;;;;;;6.57;5.32;;;0.00;46.60;;;;;;5033779;28;20390;-72
2023/02/28 07:08:26;;;;;;;9.88;5.85;;;0.10;46.10;;;;;;5036889;28;20797;-74
2023/02/28 07:10:53;;;;;;;8.88;5.47;;;0.10;45.40;;;;;;5036194;28;20383;-73
2023/02/28 07:13:19;;;;;;;9.70;5.53;;;0.10;45.10;;;;;;5041684;28;20387;-74
2023/02/28 07:15:59;;;;;;;9.00;5.10;;;0.10;44.10;;;;;;5039788;28;20414;-74
2023/02/28 07:18:25;;;;;;;11.75;5.10;;;0.20;46.70;;;;;;5036285;28;20405;-73
2023/02/28 07:20:50;;;;;;;8.63;5.45;;;0.40;42.40;;;;;;5014261;28;20387;-73
2023/02/28 07:23:17;;;;;;;8.57;5.30;;;0.50;41.30;;;;;;5044379;28;20384;-72
2023/02/28 07:25:43;;;;;;;6.95;5.05;;;0.60;40.40;;;;;;5027928;28;20399;-74
2023/02/28 07:28:08;;;;;;;12.70;5.05;;;0.70;39.00;;;;;;5051222;28;20413;-74
2023/02/28 07:30:34;;;;;;;6.55;4.80;;;0.60;39.50;;;;;;5049900;28;20387;-74
2023/02/28 07:32:59;;;;;;;11.97;6.20;;;0.70;39.00;;;;;;5047957;28;20453;-74
2023/02/28 07:35:25;;;;;;;8.10;5.80;;;0.80;39.10;;;;;;5048450;28;20415;-74
2023/02/28 07:37:51;;;;;;;9.80;4.87;;;0.90;38.10;;;;;;5042025;28;20430;-74
2023/02/28 07:40:17;;;;;;;6.47;4.82;;;1.00;37.00;;;;;;5040820;28;20458;-75
2023/02/28 07:42:43;;;;;;;8.85;4.88;;;1.00;36.80;;;;;;5030794;28;20383;-74
2023/02/28 07:45:11;;;;;;;4.95;4.30;;;1.10;35.90;;;;;;5031891;28;20434;-74
2023/02/28 07:47:40;;;;;;;6.60;4.40;;;1.20;33.30;;;;;;5031302;28;20418;-75
2023/02/28 07:50:08;;;;;;;9.57;4.90;;;1.20;32.90;;;;;;5031840;28;20391;-73
2023/02/28 07:52:34;;;;;;;10.32;4.40;;;1.30;33.20;;;;;;5031100;28;20395;-73
2023/02/28 07:54:59;;;;;;;8.00;5.10;;;1.50;32.00;;;;;;5035902;28;20410;-73
2023/02/28 07:57:25;;;;;;;7.50;4.07;;;1.60;30.90;;;;;;5048385;28;20383;-74
2023/02/28 07:59:50;;;;;;;7.53;4.70;;;1.70;29.40;;;;;;5028298;28;20379;-74
2023/02/28 08:02:18;;;;;;;7.15;4.57;;;1.80;29.60;;;;;;5048736;28;20387;-73
2023/02/28 08:04:44;;;;;;;6.70;4.28;;;1.80;29.10;;;;;;5048377;28;20401;-73
2023/02/28 08:07:12;;;;;;;7.20;4.20;;;1.90;28.70;;;;;;5048074;28;20467;-73
2023/02/28 08:09:38;;;;;;;7.30;4.43;;;2.00;27.80;;;;;;5033857;28;20427;-74
2023/02/28 08:12:04;;;;;;;5.60;4.20;;;2.10;28.90;;;;;;5030585;28;20796;-74
2023/02/28 08:14:30;;;;;;;8.23;4.93;;;2.20;27.00;;;;;;5030508;28;20399;-73
2023/02/28 08:16:55;;;;;;;5.87;4.10;;;2.30;26.80;;;;;;5030628;28;20481;-74
2023/02/28 08:19:21;;;;;;;8.23;4.10;;;2.40;29.60;;;;;;5030599;28;20410;-74
2023/02/28 08:21:46;;;;;;;6.27;3.90;;;2.40;27.10;;;;;;5033669;28;20383;-74
2023/02/28 08:24:12;;;;;;;5.90;4.20;;;2.60;26.40;;;;;;5040381;28;20423;-74
2023/02/28 08:26:37;;;;;;;6.18;4.22;;;2.60;26.30;;;;;;5047259;28;20384;-72
2023/02/28 08:29:03;;;;;;;7.32;4.10;;;2.70;25.20;;;;;;5046972;28;20417;-74
2023/02/28 08:31:28;;;;;;;5.67;3.80;;;2.70;24.70;;;;;;5046096;28;20403;-74
2023/02/28 08:33:56;;;;;;;5.40;3.40;;;2.80;24.90;;;;;;5046149;28;20419;-73
2023/02/28 08:36:23;;;;;;;5.82;3.35;;;3.00;23.00;;;;;;5043877;28;20396;-74
2023/02/28 08:38:49;;;;;;;6.00;4.10;;;3.10;23.60;;;;;;5030813;28;20818;-74
2023/02/28 08:41:14;;;;;;;10.27;5.50;;;3.10;23.30;;;;;;5030398;28;20391;-74
2023/02/28 08:43:43;;;;;;;8.40;4.20;;;3.20;22.00;;;;;;5031194;28;20533;-75
2023/02/28 08:46:13;;;;;;;6.53;3.97;;;3.40;21.50;;;;;;5013386;28;20391;-73
2023/02/28 08:48:39;;;;;;;7.20;3.70;;;3.40;21.20;;;;;;5031300;28;20387;-72
2023/02/28 08:51:08;;;;;;;7.22;3.60;;;3.40;20.90;;;;;;5030964;28;20383;-73
2023/02/28 08:53:35;;;;;;;11.80;3.70;;;3.40;20.50;;;;;;5031215;28;20379;-72
2023/02/28 08:56:04;;;;;;;9.00;3.90;;;3.60;19.40;;;;;;5033471;28;20768;-72
2023/02/28 08:58:29;;;;;;;4.95;3.20;;;3.60;18.90;;;;;;5038185;28;20379;-71
2023/02/28 09:00:55;;;;;;;5.72;3.20;;;3.70;19.60;;;;;;5037965;28;20400;-72
2023/02/28 09:03:22;;;;;;;7.77;4.20;;;3.80;19.20;;;;;;5048965;28;20483;-72
2023/02/28 09:05:59;;;;;;;4.63;2.97;;;3.90;18.80;;;;;;5046396;28;20390;-73
2023/02/28 09:08:26;;;;;;;4.88;2.65;;;4.00;17.20;;;;;;5036942;28;20773;-72
2023/02/28 09:10:52;;;;;;;3.90;2.88;;;4.00;16.00;;;;;;5016803;28;20387;-72
2023/02/28 09:13:18;;;;;;;5.33;2.90;;;4.00;16.40;;;;;;5034114;28;20398;-72
2023/02/28 09:15:44;;;;;;;4.35;2.90;;;4.10;15.80;;;;;;5033992;28;20508;-72
2023/02/28 09:18:10;;;;;;;4.50;3.22;;;4.00;15.20;;;;;;5034582;28;20448;-71
2023/02/28 09:20:41;;;;;;;4.40;2.50;;;4.00;17.80;;;;;;5034032;28;20935;-73
2023/02/28 09:23:07;;;;;;;6.33;2.90;;;3.90;15.50;;;;;;5034811;28;20922;-80
2023/02/28 09:25:33;;;;;;;3.92;2.80;;;3.90;16.20;;;;;;5037721;28;20406;-75
2023/02/28 09:27:59;;;;;;;3.13;2.78;;;4.10;15.30;;;;;;5040397;28;20391;-74
2023/02/28 09:30:24;;;;;;;4.43;2.53;;;4.10;16.30;;;;;;5040101;28;20464;-76
2023/02/28 09:32:53;;;;;;;3.20;2.60;;;4.10;17.00;;;;;;5037872;28;20387;-74
2023/02/28 09:35:20;;;;;;;4.80;3.47;;;4.00;15.40;;;;;;5036491;28;20445;-74
2023/02/28 09:37:47;;;;;;;3.88;2.80;;;4.00;16.20;;;;;;5034625;28;20393;-73
2023/02/28 09:40:14;;;;;;;3.03;2.73;;;4.10;16.30;;;;;;5035160;28;20465;-74
2023/02/28 09:42:40;;;;;;;2.70;2.50;;;4.20;15.20;;;;;;5021060;28;20467;-73
2023/02/28 09:45:23;;;;;;;5.47;3.10;;;4.20;15.50;;;;;;5021213;28;20940;-74
2023/02/28 09:47:51;;;;;;;3.65;3.10;;;4.20;15.60;;;;;;5038207;28;20436;-74
2023/02/28 09:50:40;;;;;;;3.30;2.70;;;4.40;16.10;;;;;;5036506;28;20391;-74
2023/02/28 09:53:33;;;;;;;4.75;2.72;;;4.30;14.90;;;;;;5033800;28;20426;-75
2023/02/28 09:56:01;;;;;;;4.30;2.90;;;4.30;15.40;;;;;;5034515;28;20387;-74
2023/02/28 09:58:36;;;;;;;7.20;2.90;;;4.40;16.30;;;;;;5033629;28;20846;-74
2023/02/28 10:01:42;;;;;;;4.35;3.10;;;4.60;15.40;;;;;;5034375;28;20456;-74
2023/02/28 10:04:19;;;;;;;5.57;3.40;;;4.80;15.30;;;;;;5034073;28;20383;-75
2023/02/28 10:06:50;;;;;;;3.45;2.80;;;4.70;15.60;;;;;;5033145;28;20474;-74
2023/02/28 10:09:24;;;;;;;4.85;3.10;;;4.90;15.40;;;;;;5033795;28;20406;-75
2023/02/28 10:11:52;;;;;;;3.95;2.80;;;5.00;15.00;;;;;;5015921;28;20481;-76
2023/02/28 10:14:21;;;;;;;3.33;2.83;;;5.20;15.00;;;;;;5034345;28;20427;-76
2023/02/28 10:17:05;;;;;;;9.25;4.75;;;5.30;14.40;;;;;;5016394;28;20392;-76
2023/02/28 10:20:01;;;;;;;6.03;3.55;;;5.60;13.90;;;;;;5036027;28;20411;-75
2023/02/28 10:22:38;;;;;;;5.90;3.10;;;5.90;13.50;;;;;;5018641;28;20533;-75
2023/02/28 10:25:20;;;;;;;3.00;2.35;;;5.90;13.30;;;;;;5041752;28;20418;-74
2023/02/28 10:27:45;;;;;;;3.00;2.60;;;6.10;12.80;;;;;;5045264;28;20391;-74
2023/02/28 10:30:13;;;;;;;5.97;3.43;;;6.10;13.50;;;;;;5044000;28;20394;-73
2023/02/28 10:32:40;;;;;;;4.82;2.95;;;6.10;13.80;;;;;;5033824;28;20874;-75
2023/02/28 10:35:20;;;;;;;6.78;3.38;;;5.90;13.90;;;;;;5033969;28;20452;-74
2023/02/28 10:38:08;;;;;;;3.83;3.10;;;5.70;13.80;;;;;;5015984;28;20955;-74
2023/02/28 10:40:37;;;;;;;5.13;3.30;;;5.50;14.50;;;;;;5034001;28;20497;-75
2023/02/28 10:43:16;;;;;;;3.50;2.90;;;5.70;14.60;;;;;;5033868;28;20922;-74
2023/02/28 10:45:58;;;;;;;2.70;2.50;;;5.80;13.00;;;;;;5034270;28;20379;-73
2023/02/28 10:48:34;;;;;;;4.13;2.55;;;5.80;12.40;;;;;;5033849;28;20876;-73
2023/02/28 10:51:00;;;;;;;5.28;2.60;;;5.70;13.40;;;;;;5034631;28;20398;-74
2023/02/28 10:53:54;;;;;;;3.60;2.50;;;5.70;13.50;;;;;;5038503;28;20390;-75
2023/02/28 10:56:22;;;;;;;2.70;2.22;;;5.60;12.10;;;;;;5037400;28;20449;-74
2023/02/28 10:58:57;;;;;;;7.63;2.77;;;5.50;13.60;;;;;;5036143;28;20422;-74
2023/02/28 11:01:45;;;;;;;4.67;2.60;;;5.40;13.20;;;;;;5016954;28;20441;-75
2023/02/28 11:04:32;;;;;;;3.17;2.42;;;5.50;13.30;;;;;;5016614;28;20395;-74
2023/02/28 11:07:22;;;;;;;4.10;2.50;;;5.70;11.60;;;;;;5038363;28;20383;-74
2023/02/28 11:09:50;;;;;;;3.20;2.50;;;6.10;14.00;;;;;;5034016;28;20529;-75
2023/02/28 11:12:25;;;;;;;4.97;2.65;;;6.60;11.30;;;;;;5039239;28;20401;-75
2023/02/28 11:14:54;;;;;;;6.18;2.97;;;6.90;12.00;;;;;;5040210;28;20410;-75
2023/02/28 11:17:23;;;;;;;4.43;2.60;;;6.90;11.10;;;;;;5038188;28;20391;-73
2023/02/28 11:19:52;;;;;;;3.22;2.58;;;7.00;10.90;;;;;;5038469;28;20414;-74
2023/02/28 11:22:21;;;;;;;6.90;2.80;;;7.00;11.30;;;;;;5037558;28;20730;-74
2023/02/28 11:24:50;;;;;;;4.95;2.65;;;6.80;11.50;;;;;;5038620;28;20403;-75
2023/02/28 11:27:31;;;;;;;4.18;2.78;;;6.70;12.20;;;;;;5034247;28;20391;-74
2023/02/28 11:29:58;;;;;;;7.50;2.90;;;6.70;10.70;;;;;;5033303;28;20398;-75
2023/02/28 11:32:30;;;;;;;6.13;2.50;;;6.70;11.50;;;;;;5034657;28;20478;-74
2023/02/28 11:35:15;;;;;;;3.33;2.50;;;6.90;11.00;;;;;;5033171;28;20784;-74
2023/02/28 11:37:41;;;;;;;3.50;2.30;;;7.20;10.20;;;;;;5033682;28;20397;-74
2023/02/28 11:40:28;;;;;;;3.40;3.00;;;7.20;9.90;;;;;;5033858;28;20441;-75
2023/02/28 11:42:57;;;;;;;3.90;2.70;;;7.00;10.90;;;;;;5016705;28;20968;-75
2023/02/28 11:45:43;;;;;;;4.93;2.90;;;6.70;10.60;;;;;;5033843;28;20422;-75
2023/02/28 11:48:20;;;;;;;4.40;2.70;;;6.60;10.60;;;;;;5034665;28;20441;-76
2023/02/28 11:51:23;;;;;;;3.42;2.40;;;6.60;11.20;;;;;;5034826;28;20426;-75
2023/02/28 11:54:17;;;;;;;4.90;2.60;;;6.60;9.80;;;;;;5034150;28;20540;-74
2023/02/28 11:56:46;;;;;;;5.05;2.30;;;6.40;10.50;;;;;;5032547;28;20389;-74
2023/02/28 11:59:39;;;;;;;4.22;2.40;;;6.40;9.80;;;;;;5032244;28;20453;-75
2023/02/28 12:02:23;;;;;;;4.65;2.90;;;6.10;10.50;;;;;;5031956;28;20383;-73
2023/02/28 12:05:13;;;;;;;10.85;3.00;;;6.00;12.80;;;;;;5032571;28;21113;-74
2023/02/28 12:07:54;;;;;;;3.50;2.40;;;6.30;12.20;;;;;;5032259;28;20741;-74
2023/02/28 12:10:30;;;;;;;5.63;3.10;;;6.40;11.50;;;;;;5035126;28;20889;-74
2023/02/28 12:13:08;;;;;;;4.10;2.70;;;6.30;10.60;;;;;;5016769;28;20391;-74
2023/02/28 12:15:42;;;;;;;4.95;2.80;;;6.00;12.20;;;;;;5034614;28;20403;-74
2023/02/28 12:18:36;;;;;;;5.78;2.60;;;5.90;11.90;;;;;;5034088;28;20371;-74
2023/02/28 12:21:22;;;;;;;7.43;3.00;;;5.80;10.80;;;;;;5036641;28;20395;-74
2023/02/28 12:24:29;;;;;;;4.63;2.65;;;5.60;12.80;;;;;;5031875;28;20383;-75
2023/02/28 12:26:57;;;;;;;7.15;3.45;;;5.70;13.30;;;;;;5031938;28;20441;-72
2023/02/28 12:29:29;;;;;;;4.90;2.83;;;5.80;12.30;;;;;;5030667;28;20433;-73
2023/02/28 12:32:33;;;;;;;3.35;2.90;;;6.00;12.80;;;;;;5031878;28;20472;-73
2023/02/28 12:35:10;;;;;;;4.63;3.20;;;6.00;10.90;;;;;;4992214;28;20867;-73
2023/02/28 12:37:59;;;;;;;3.42;2.80;;;6.00;12.40;;;;;;5026524;28;20799;-72
2023/02/28 12:40:45;;;;;;;6.30;2.88;;;5.90;13.30;;;;;;5030641;28;20720;-72
2023/02/28 12:43:13;;;;;;;3.47;3.17;;;6.00;13.20;;;;;;5030260;28;20383;-74
2023/02/28 12:46:09;;;;;;;3.30;2.78;;;6.10;13.40;;;;;;5030627;28;20391;-74
2023/02/28 12:48:43;;;;;;;8.93;5.05;;;6.10;13.40;;;;;;5015728;28;20461;-74
2023/02/28 12:51:10;;;;;;;4.72;3.05;;;6.30;13.10;;;;;;5029957;28;20462;-73
2023/02/28 12:54:11;;;;;;;8.20;3.20;;;6.40;13.30;;;;;;5030507;28;20422;-75
2023/02/28 12:56:53;;;;;;;5.63;2.92;;;6.30;12.60;;;;;;5012556;28;20521;-74
2023/02/28 12:59:45;;;;;;;4.40;3.30;;;6.40;12.60;;;;;;5031141;28;20390;-74
2023/02/28 13:02:16;;;;;;;4.30;2.70;;;6.30;11.50;;;;;;5028246;28;20524;-72
2023/02/28 13:05:12;;;;;;;6.60;2.87;;;6.20;11.80;;;;;;5030657;28;20804;-73
2023/02/28 13:07:40;;;;;;;7.10;2.70;;;6.00;12.00;;;;;;5012547;28;20390;-73
2023/02/28 13:10:07;;;;;;;5.90;2.90;;;6.30;10.80;;;;;;5030301;28;20391;-74